createdAt,value
2023-03-17T00:00:41.440Z,24.00
2023-03-17T00:03:26.002Z,21.90
2023-03-17T00:05:54.792Z,18.40
2023-03-17T00:08:23.820Z,26.50
2023-03-17T00:10:52.543Z,19.50
2023-03-17T00:13:20.813Z,22.00
2023-03-17T00:15:53.061Z,21.90
2023-03-17T00:18:28.162Z,22.20
2023-03-17T00:20:56.568Z,23.10
2023-03-17T00:23:25.656Z,22.70
2023-03-17T00:25:57.465Z,22.10
2023-03-17T00:28:27.266Z,20.50
2023-03-17T00:30:57.733Z,22.50
2023-03-17T00:33:27.946Z,20.80
2023-03-17T00:35:56.068Z,19.10
2023-03-17T00:38:26.571Z,36.60
2023-03-17T00:40:54.866Z,37.60
2023-03-17T00:43:24.075Z,35.70
2023-03-17T00:45:52.456Z,33.60
2023-03-17T00:48:21.998Z,36.50
2023-03-17T00:50:50.493Z,36.20
2023-03-17T00:53:21.654Z,24.90
2023-03-17T00:55:50.087Z,30.40
2023-03-17T00:58:29.378Z,20.50
2023-03-17T01:00:57.653Z,27.90
2023-03-17T01:03:26.581Z,25.40
2023-03-17T01:07:59.036Z,24.50
2023-03-17T01:10:28.748Z,22.20
2023-03-17T01:12:58.161Z,24.80
2023-03-17T01:15:30.446Z,19.50
2023-03-17T01:17:59.732Z,21.60
2023-03-17T01:20:30.962Z,27.50
2023-03-17T01:22:59.735Z,27.10
2023-03-17T01:25:28.632Z,26.10
2023-03-17T01:27:58.041Z,26.50
2023-03-17T01:30:28.901Z,27.50
2023-03-17T01:33:00.670Z,26.90
2023-03-17T01:35:29.551Z,25.10
2023-03-17T01:37:58.045Z,26.50
2023-03-17T01:40:29.207Z,24.00
2023-03-17T01:43:06.568Z,22.60
2023-03-17T01:46:13.938Z,26.00
2023-03-17T01:48:56.333Z,24.20
2023-03-17T01:51:33.997Z,26.40
2023-03-17T01:54:04.847Z,25.00
2023-03-17T01:56:35.230Z,26.00
2023-03-17T01:59:05.410Z,31.00
2023-03-17T02:01:37.865Z,24.30
2023-03-17T02:04:06.808Z,26.20
2023-03-17T02:06:37.060Z,25.40
2023-03-17T02:09:10.549Z,26.80
2023-03-17T02:11:39.450Z,21.50
2023-03-17T02:14:09.070Z,26.40
2023-03-17T02:16:40.581Z,23.20
2023-03-17T02:19:09.959Z,25.50
2023-03-17T02:21:39.585Z,27.10
2023-03-17T02:24:25.044Z,26.60
2023-03-17T02:26:55.697Z,21.30
2023-03-17T02:29:30.819Z,25.10
2023-03-17T02:31:59.146Z,23.30
2023-03-17T02:34:27.298Z,21.40
2023-03-17T02:36:56.094Z,25.10
2023-03-17T02:39:25.242Z,24.00
2023-03-17T02:41:58.338Z,25.80
2023-03-17T02:51:59.315Z,29.20
2023-03-17T02:54:27.815Z,26.30
2023-03-17T02:56:56.750Z,29.20
2023-03-17T02:59:25.252Z,26.40
2023-03-17T03:01:53.630Z,32.90
2023-03-17T03:04:22.207Z,28.30
2023-03-17T03:06:50.612Z,24.40
2023-03-17T03:09:19.008Z,32.30
2023-03-17T03:11:47.380Z,30.30
2023-03-17T03:14:15.959Z,24.90
2023-03-17T03:16:44.554Z,24.20
2023-03-17T03:26:54.213Z,28.90
2023-03-17T03:29:22.614Z,31.00
2023-03-17T03:31:52.543Z,33.80
2023-03-17T03:34:20.700Z,38.40
2023-03-17T03:36:48.795Z,35.40
2023-03-17T03:39:17.085Z,33.50
2023-03-17T03:41:45.858Z,34.20
2023-03-17T03:44:19.077Z,28.80
2023-03-17T03:46:48.219Z,31.00
2023-03-17T03:49:16.561Z,30.70
2023-03-17T03:51:45.385Z,33.10
2023-03-17T03:54:13.652Z,29.70
2023-03-17T03:56:45.749Z,35.30
2023-03-17T03:59:15.233Z,31.90
2023-03-17T04:01:43.535Z,38.40
2023-03-17T04:04:11.632Z,34.40
2023-03-17T04:06:39.734Z,39.60
2023-03-17T04:09:09.522Z,33.50
2023-03-17T04:11:38.009Z,36.20
2023-03-17T04:14:06.529Z,39.30
2023-03-17T04:16:34.800Z,38.80
2023-03-17T04:19:03.210Z,39.80
2023-03-17T04:21:32.056Z,38.20
2023-03-17T04:24:00.755Z,37.50
2023-03-17T04:26:29.039Z,39.40
2023-03-17T04:28:59.170Z,40.70
2023-03-17T04:31:27.962Z,37.40
2023-03-17T04:33:56.339Z,39.60
2023-03-17T04:36:24.617Z,39.40
2023-03-17T04:38:56.058Z,40.70
2023-03-17T04:41:24.329Z,40.00
2023-03-17T04:43:52.812Z,50.30
2023-03-17T04:46:21.585Z,45.80
2023-03-17T04:48:49.582Z,47.00
2023-03-17T04:51:17.734Z,77.90
2023-03-17T04:53:46.218Z,51.40
2023-03-17T04:56:14.573Z,51.10
2023-03-17T04:58:45.613Z,55.90
2023-03-17T05:01:14.509Z,45.90
2023-03-17T05:03:42.486Z,51.70
2023-03-17T05:06:11.028Z,55.50
2023-03-17T05:08:39.491Z,64.40
2023-03-17T05:11:09.598Z,64.30
2023-03-17T05:13:41.064Z,59.10
2023-03-17T05:16:09.977Z,54.20
2023-03-17T05:21:10.373Z,53.20
2023-03-17T05:23:39.039Z,55.40
2023-03-17T05:26:07.016Z,69.50
2023-03-17T05:28:38.200Z,75.20
2023-03-17T05:31:07.705Z,60.00
2023-03-17T05:33:39.370Z,65.80
2023-03-17T05:36:08.149Z,52.70
2023-03-17T05:38:37.092Z,61.20
2023-03-17T05:41:05.472Z,66.10
2023-03-17T05:43:34.052Z,62.80
2023-03-17T05:46:02.282Z,66.70
2023-03-17T05:48:30.497Z,66.40
2023-03-17T05:50:59.001Z,65.10
2023-03-17T05:53:27.596Z,57.40
2023-03-17T05:55:56.313Z,62.70
2023-03-17T05:58:24.605Z,64.70
2023-03-17T06:00:56.269Z,65.50
2023-03-17T06:03:24.993Z,66.50
2023-03-17T06:05:53.158Z,69.50
2023-03-17T06:08:22.045Z,81.60
2023-03-17T06:10:50.926Z,78.40
2023-03-17T06:13:19.119Z,70.90
2023-03-17T06:15:47.298Z,60.10
2023-03-17T06:18:16.313Z,64.80
2023-03-17T06:20:44.503Z,56.70
2023-03-17T06:23:13.027Z,62.40
2023-03-17T06:25:41.698Z,52.70
2023-03-17T06:28:10.404Z,47.20
2023-03-17T06:30:40.742Z,40.70
2023-03-17T06:33:09.438Z,46.30
2023-03-17T06:35:41.263Z,38.50
2023-03-17T06:38:11.595Z,34.80
2023-03-17T06:40:41.496Z,29.60
2023-03-17T06:43:10.350Z,33.20
2023-03-17T06:45:41.213Z,30.20
2023-03-17T06:48:09.549Z,32.90
2023-03-17T06:50:37.888Z,30.90
2023-03-17T06:53:07.402Z,32.10
2023-03-17T06:55:35.774Z,34.80
2023-03-17T06:58:06.637Z,43.00
2023-03-17T07:00:38.401Z,37.70
2023-03-17T07:03:06.410Z,40.20
2023-03-17T07:05:35.534Z,34.90
2023-03-17T07:08:03.797Z,39.00
2023-03-17T07:10:33.035Z,29.90
2023-03-17T07:13:07.957Z,34.10
2023-03-17T07:15:37.451Z,34.00
2023-03-17T07:18:07.102Z,34.00
2023-03-17T07:20:35.879Z,33.40
2023-03-17T07:23:04.297Z,29.30
2023-03-17T07:25:32.928Z,32.30
2023-03-17T07:35:44.275Z,32.60
2023-03-17T07:38:13.113Z,35.50
2023-03-17T07:40:41.811Z,25.00
2023-03-17T07:43:10.892Z,31.80
2023-03-17T07:45:39.669Z,31.10
2023-03-17T07:48:08.538Z,28.60
2023-03-17T07:50:37.082Z,26.30
2023-03-17T07:53:05.445Z,31.60
2023-03-17T07:55:33.812Z,34.40
2023-03-17T07:58:02.899Z,33.50
2023-03-17T08:00:32.179Z,29.80
2023-03-17T08:03:09.942Z,32.90
2023-03-17T08:05:39.778Z,29.80
2023-03-17T08:08:11.658Z,47.40
2023-03-17T08:10:42.024Z,27.90
2023-03-17T08:13:10.819Z,32.70
2023-03-17T08:15:41.652Z,28.10
2023-03-17T08:18:10.567Z,36.30
2023-03-17T08:20:39.257Z,27.20
2023-03-17T08:23:10.605Z,25.20
2023-03-17T08:25:39.505Z,24.10
2023-03-17T08:28:07.986Z,21.70
2023-03-17T08:30:38.940Z,27.40
2023-03-17T08:33:07.703Z,24.50
2023-03-17T08:35:37.413Z,21.10
2023-03-17T08:38:06.558Z,25.60
2023-03-17T08:40:35.165Z,24.20
2023-03-17T08:43:04.088Z,20.70
2023-03-17T08:45:32.529Z,19.50
2023-03-17T08:48:01.624Z,18.20
2023-03-17T08:50:31.095Z,20.90
2023-03-17T08:52:59.377Z,15.70
2023-03-17T08:55:27.701Z,11.70
2023-03-17T08:57:56.246Z,17.90
2023-03-17T09:00:24.913Z,13.60
2023-03-17T09:02:53.372Z,10.90
2023-03-17T09:05:21.944Z,14.20
2023-03-17T09:07:50.383Z,12.50
2023-03-17T09:10:23.689Z,10.50
2023-03-17T09:12:53.612Z,11.20
2023-03-17T09:15:22.327Z,16.60
2023-03-17T09:17:51.002Z,12.40
2023-03-17T09:20:24.051Z,14.30
2023-03-17T09:22:54.398Z,10.10
2023-03-17T09:25:22.692Z,10.10
2023-03-17T09:27:55.757Z,8.60
2023-03-17T09:30:27.056Z,6.20
2023-03-17T09:32:55.145Z,12.70
2023-03-17T09:35:23.649Z,8.00
2023-03-17T09:37:51.911Z,9.10
2023-03-17T09:40:22.248Z,6.80
2023-03-17T09:43:02.293Z,9.00
2023-03-17T09:45:39.849Z,7.90
2023-03-17T09:48:32.379Z,9.60
2023-03-17T09:51:13.884Z,9.30
2023-03-17T09:53:59.963Z,13.10
2023-03-17T09:56:30.439Z,9.60
2023-03-17T09:59:22.769Z,10.00
2023-03-17T10:01:51.057Z,11.80
2023-03-17T10:04:19.697Z,14.30
2023-03-17T10:06:48.126Z,11.20
2023-03-17T10:09:26.165Z,9.90
2023-03-17T10:11:59.598Z,10.20
2023-03-17T10:14:30.696Z,8.60
2023-03-17T10:17:19.461Z,13.30
2023-03-17T10:20:29.746Z,8.10
2023-03-17T10:23:01.075Z,14.10
2023-03-17T10:25:31.964Z,6.80
2023-03-17T10:28:32.680Z,7.20
2023-03-17T10:31:15.895Z,10.10
2023-03-17T10:33:52.588Z,7.50
2023-03-17T10:36:38.429Z,5.90
2023-03-17T10:39:07.353Z,7.50
2023-03-17T10:41:38.834Z,6.20
2023-03-17T10:44:11.252Z,5.70
2023-03-17T10:46:41.903Z,6.10
2023-03-17T10:49:16.956Z,6.60
2023-03-17T10:51:46.500Z,8.90
2023-03-17T10:54:19.074Z,7.10
2023-03-17T10:56:49.099Z,7.90
2023-03-17T10:59:28.663Z,6.80
2023-03-17T11:02:00.798Z,7.30
2023-03-17T11:04:37.088Z,6.30
2023-03-17T11:07:18.561Z,6.70
2023-03-17T11:09:50.929Z,5.20
2023-03-17T11:12:21.840Z,6.10
2023-03-17T11:14:49.842Z,6.20
2023-03-17T11:17:20.902Z,7.20
2023-03-17T11:19:50.706Z,8.20
2023-03-17T11:22:40.339Z,5.90
2023-03-17T11:25:16.177Z,7.40
2023-03-17T11:28:06.947Z,9.70
2023-03-17T11:30:40.492Z,11.80
2023-03-17T11:33:21.907Z,6.40
2023-03-17T11:35:53.293Z,7.90
2023-03-17T11:38:29.735Z,8.90
2023-03-17T11:41:28.615Z,12.10
2023-03-17T11:44:29.021Z,10.20
2023-03-17T11:47:19.537Z,8.40
2023-03-17T11:50:13.236Z,6.20
2023-03-17T11:53:14.195Z,10.00
2023-03-17T11:55:47.831Z,13.10
2023-03-17T11:58:33.810Z,6.10
2023-03-17T12:01:02.304Z,8.70
2023-03-17T12:03:43.771Z,9.30
2023-03-17T12:06:18.372Z,9.70
2023-03-17T12:08:52.602Z,7.30
2023-03-17T12:11:24.189Z,10.80
2023-03-17T12:16:29.518Z,7.90
2023-03-17T12:19:24.557Z,6.70
2023-03-17T12:21:59.353Z,5.80
2023-03-17T12:24:43.876Z,7.40
2023-03-17T12:27:59.082Z,9.50
2023-03-17T12:30:35.435Z,8.50
2023-03-17T12:33:12.065Z,9.60
2023-03-17T12:35:41.649Z,7.80
2023-03-17T12:38:13.731Z,12.70
2023-03-17T12:41:15.439Z,10.50
2023-03-17T12:43:48.528Z,9.70
2023-03-17T12:46:37.806Z,6.30
2023-03-17T12:49:25.083Z,8.30
2023-03-17T12:52:02.661Z,6.10
2023-03-17T12:54:33.612Z,9.00
2023-03-17T12:57:05.000Z,7.60
2023-03-17T12:59:34.124Z,7.50
2023-03-17T13:02:13.241Z,7.10
2023-03-17T13:04:49.002Z,8.40
2023-03-17T13:07:21.986Z,6.80
2023-03-17T13:09:50.816Z,10.60
2023-03-17T13:12:44.452Z,7.90
2023-03-17T13:15:25.570Z,6.10
2023-03-17T13:18:13.934Z,5.60
2023-03-17T13:20:53.238Z,9.40
2023-03-17T13:23:41.198Z,11.60
2023-03-17T13:27:02.238Z,12.40
2023-03-17T13:29:33.691Z,7.90
2023-03-17T13:32:31.612Z,8.40
2023-03-17T13:34:59.795Z,9.30
2023-03-17T13:37:28.034Z,11.60
2023-03-17T13:40:17.490Z,11.10
2023-03-17T13:43:01.317Z,9.20
2023-03-17T13:45:44.063Z,8.00
2023-03-17T13:51:32.221Z,6.30
2023-03-17T13:54:08.777Z,11.10
2023-03-17T13:56:41.136Z,12.00
2023-03-17T13:59:16.990Z,12.10
2023-03-17T14:01:48.015Z,8.90
2023-03-17T14:04:24.986Z,24.50
2023-03-17T14:06:55.702Z,5.50
2023-03-17T14:09:33.922Z,7.60
2023-03-17T14:15:07.608Z,5.50
2023-03-17T14:17:42.862Z,6.50
2023-03-17T14:20:15.615Z,7.20
2023-03-17T14:22:48.011Z,12.10
2023-03-17T14:25:23.333Z,11.00
2023-03-17T14:27:53.885Z,17.50
2023-03-17T14:30:29.606Z,11.50
2023-03-17T14:33:07.272Z,14.10
2023-03-17T14:35:39.124Z,14.50
2023-03-17T14:38:30.476Z,7.90
2023-03-17T14:41:16.213Z,14.80
2023-03-17T14:43:48.881Z,22.80
2023-03-17T14:46:24.223Z,9.10
2023-03-17T14:48:58.006Z,13.10
2023-03-17T14:51:32.293Z,10.70
2023-03-17T14:54:01.483Z,9.00
2023-03-17T14:56:52.855Z,11.70
2023-03-17T14:59:27.192Z,11.70
2023-03-17T15:01:56.775Z,9.20
2023-03-17T15:04:27.561Z,7.50
2023-03-17T15:07:03.698Z,9.00
2023-03-17T15:09:38.581Z,17.30
2023-03-17T15:12:23.449Z,20.20
2023-03-17T15:14:53.629Z,8.80
2023-03-17T15:17:26.005Z,9.80
2023-03-17T15:19:57.743Z,8.80
2023-03-17T15:22:34.994Z,8.20
2023-03-17T15:25:20.826Z,7.70
2023-03-17T15:27:49.125Z,6.50
2023-03-17T15:30:19.565Z,7.50
2023-03-17T15:33:03.220Z,7.30
2023-03-17T15:35:31.498Z,7.80
2023-03-17T15:38:00.107Z,7.90
2023-03-17T15:40:28.818Z,10.30
2023-03-17T15:43:00.564Z,22.00
2023-03-17T15:45:29.673Z,29.40
2023-03-17T15:47:57.819Z,18.80
2023-03-17T15:50:29.478Z,20.60
2023-03-17T15:52:57.967Z,56.90
2023-03-17T15:55:29.543Z,27.20
2023-03-17T15:57:58.226Z,24.10
2023-03-17T16:00:34.859Z,17.30
2023-03-17T16:03:19.055Z,14.20
2023-03-17T16:05:47.100Z,9.50
2023-03-17T16:08:18.037Z,10.90
2023-03-17T16:10:46.894Z,10.10
2023-03-17T16:13:15.116Z,20.60
2023-03-17T16:15:48.240Z,18.30
2023-03-17T16:18:19.064Z,18.90
2023-03-17T16:20:48.604Z,75.80
2023-03-17T16:23:24.654Z,57.30
2023-03-17T16:25:55.480Z,76.00
2023-03-17T16:28:32.015Z,64.90
2023-03-17T16:31:01.021Z,124.50
2023-03-17T16:33:39.605Z,169.60
2023-03-17T16:36:11.088Z,89.80
2023-03-17T16:38:39.683Z,51.80
2023-03-17T16:41:22.462Z,28.40
2023-03-17T16:43:59.351Z,15.40
2023-03-17T16:46:35.016Z,12.60
2023-03-17T16:49:07.016Z,12.80
2023-03-17T16:51:35.579Z,14.20
2023-03-17T16:54:04.367Z,10.50
2023-03-17T16:56:32.682Z,10.30
2023-03-17T16:59:18.661Z,10.40
2023-03-17T17:01:47.646Z,7.60
2023-03-17T17:04:16.048Z,7.50
2023-03-17T17:06:44.421Z,7.20
2023-03-17T17:09:14.091Z,11.40
2023-03-17T17:11:42.419Z,22.80
2023-03-17T17:14:11.381Z,12.80
2023-03-17T17:16:40.351Z,12.20
2023-03-17T17:19:16.666Z,8.60
2023-03-17T17:21:45.000Z,15.30
2023-03-17T17:24:13.888Z,23.70
2023-03-17T17:26:43.933Z,21.10
2023-03-17T17:29:12.765Z,17.70
2023-03-17T17:31:41.216Z,18.60
2023-03-17T17:34:09.885Z,19.90
2023-03-17T17:36:38.674Z,35.80
2023-03-17T17:39:07.461Z,56.10
2023-03-17T17:41:36.548Z,58.90
2023-03-17T17:44:05.721Z,40.60
2023-03-17T17:46:34.452Z,25.30
2023-03-17T17:49:02.815Z,30.30
2023-03-17T17:54:03.218Z,35.60
2023-03-17T17:56:36.631Z,46.00
2023-03-17T17:59:04.919Z,36.20
2023-03-17T18:01:33.354Z,26.90
2023-03-17T18:04:03.704Z,21.00
2023-03-17T18:06:32.426Z,22.00
2023-03-17T18:09:01.970Z,24.70
2023-03-17T18:11:32.435Z,21.50
2023-03-17T18:14:01.193Z,23.70
2023-03-17T18:16:29.739Z,19.10
2023-03-17T18:18:59.211Z,20.70
2023-03-17T18:21:28.074Z,24.40
2023-03-17T18:23:57.357Z,32.70
2023-03-17T18:26:28.610Z,34.70
2023-03-17T18:28:57.311Z,50.70
2023-03-17T18:31:37.986Z,63.00
2023-03-17T18:34:24.264Z,52.70
2023-03-17T18:36:59.829Z,46.80
2023-03-17T18:39:28.583Z,43.70
2023-03-17T18:41:56.924Z,42.90
2023-03-17T18:44:26.241Z,41.90
2023-03-17T18:46:54.428Z,41.70
2023-03-17T18:49:28.268Z,40.70
2023-03-17T18:51:56.888Z,43.10
2023-03-17T18:54:24.880Z,40.50
2023-03-17T18:56:56.493Z,50.10
2023-03-17T18:59:25.100Z,54.60
2023-03-17T19:01:59.603Z,46.60
2023-03-17T19:04:27.737Z,48.90
2023-03-17T19:06:56.342Z,64.30
2023-03-17T19:09:24.639Z,61.60
2023-03-17T19:11:53.055Z,60.30
2023-03-17T19:14:22.006Z,68.00
2023-03-17T19:16:50.018Z,63.50
2023-03-17T19:19:18.735Z,82.10
2023-03-17T19:21:46.970Z,76.20
2023-03-17T19:24:15.407Z,48.40
2023-03-17T19:26:44.172Z,56.50
2023-03-17T19:29:14.541Z,53.80
2023-03-17T19:31:43.480Z,57.60
2023-03-17T19:34:12.543Z,44.30
2023-03-17T19:36:41.681Z,63.90
2023-03-17T19:39:13.897Z,56.40
2023-03-17T19:41:42.419Z,47.10
2023-03-17T19:44:11.064Z,47.00
2023-03-17T19:46:39.520Z,55.50
2023-03-17T19:49:07.626Z,49.30
2023-03-17T19:51:36.126Z,46.40
2023-03-17T19:54:11.833Z,53.80
2023-03-17T19:56:40.437Z,60.10
2023-03-17T19:59:09.278Z,71.10
2023-03-17T20:01:38.533Z,64.70
2023-03-17T20:04:07.290Z,88.00
2023-03-17T20:06:35.456Z,71.60
2023-03-17T20:09:04.334Z,69.20
2023-03-17T20:11:34.085Z,53.20
2023-03-17T20:14:03.056Z,62.50
2023-03-17T20:16:33.704Z,57.00
2023-03-17T20:19:02.299Z,64.40
2023-03-17T20:21:33.474Z,73.50
2023-03-17T20:24:02.308Z,59.30
2023-03-17T20:26:35.226Z,64.90
2023-03-17T20:29:04.232Z,53.90
2023-03-17T20:31:32.363Z,62.40
2023-03-17T20:34:01.343Z,65.20
2023-03-17T20:39:26.639Z,57.20
2023-03-17T20:41:55.038Z,64.00
2023-03-17T20:44:24.062Z,68.20
2023-03-17T20:46:55.029Z,74.70
2023-03-17T20:49:23.453Z,83.70
2023-03-17T20:51:54.502Z,87.90
2023-03-17T20:54:23.414Z,89.50
2023-03-17T20:56:56.724Z,82.20
2023-03-17T20:59:25.192Z,89.00
2023-03-17T21:01:53.719Z,87.20
2023-03-17T21:04:27.757Z,79.70
2023-03-17T21:06:57.464Z,77.50
2023-03-17T21:09:25.761Z,78.90
2023-03-17T21:11:56.297Z,65.20
2023-03-17T21:14:24.411Z,72.40
2023-03-17T21:16:52.804Z,79.40
2023-03-17T21:19:26.043Z,87.90
2023-03-17T21:21:54.642Z,98.30
2023-03-17T21:24:34.250Z,91.70
2023-03-17T21:27:05.126Z,106.40
2023-03-17T21:29:34.065Z,170.90
2023-03-17T21:32:07.421Z,134.70
2023-03-17T21:34:35.695Z,121.40
2023-03-17T21:37:04.073Z,122.20
2023-03-17T21:39:32.958Z,118.80
2023-03-17T21:42:02.203Z,129.80
2023-03-17T21:44:36.205Z,131.10
2023-03-17T21:47:04.385Z,123.80
2023-03-17T21:49:33.505Z,122.00
2023-03-17T21:52:01.985Z,108.80
2023-03-17T21:54:30.704Z,117.20
2023-03-17T21:57:04.449Z,147.90
2023-03-17T21:59:35.843Z,138.80
2023-03-17T22:02:03.903Z,142.20
2023-03-17T22:04:32.401Z,139.80
2023-03-17T22:07:03.267Z,141.60
2023-03-17T22:09:37.625Z,158.90
2023-03-17T22:12:07.958Z,167.20
2023-03-17T22:14:36.604Z,148.10
2023-03-17T22:17:06.311Z,137.40
2023-03-17T22:19:35.165Z,140.50
2023-03-17T22:22:06.680Z,166.00
2023-03-17T22:24:35.130Z,160.40
2023-03-17T22:27:03.227Z,160.70
2023-03-17T22:29:31.420Z,137.50
2023-03-17T22:31:59.764Z,127.30
2023-03-17T22:34:27.671Z,118.60
2023-03-17T22:39:43.268Z,115.50
2023-03-17T22:42:11.737Z,134.40
2023-03-17T22:44:41.668Z,133.20
2023-03-17T22:47:09.748Z,102.30
2023-03-17T22:49:37.948Z,88.10
2023-03-17T22:52:06.644Z,75.50
2023-03-17T22:54:37.196Z,75.40
2023-03-17T22:57:05.728Z,80.00
2023-03-17T22:59:38.715Z,77.00
2023-03-17T23:02:08.666Z,78.30
2023-03-17T23:04:36.984Z,93.10
2023-03-17T23:07:07.382Z,100.10
2023-03-17T23:09:38.540Z,86.90
2023-03-17T23:12:09.471Z,86.20
2023-03-17T23:14:38.851Z,83.60
2023-03-17T23:17:09.201Z,91.80
2023-03-17T23:19:38.488Z,67.90
2023-03-17T23:22:06.674Z,91.40
2023-03-17T23:24:34.692Z,87.50
2023-03-17T23:27:02.639Z,83.60
2023-03-17T23:29:31.049Z,82.10
2023-03-17T23:32:00.379Z,86.60
2023-03-17T23:34:28.533Z,79.60
2023-03-17T23:39:43.867Z,86.20
2023-03-17T23:42:12.442Z,71.70
2023-03-17T23:44:41.980Z,78.00
2023-03-17T23:47:11.194Z,80.70
2023-03-17T23:49:39.383Z,77.80
2023-03-17T23:52:07.576Z,78.10
2023-03-17T23:54:36.469Z,80.40
2023-03-17T23:57:09.415Z,73.10
2023-03-17T23:59:37.689Z,76.60
